Time;durP1;ratioP1;P1;durP2;ratioP2;P2;SDS_P1;SDS_P2;PMS_P1;PMS_P2;Temp;Humidity;BMP_temperature;BMP_pressure;BME280_temperature;BME280_humidity;BME280_pressure;Samples;Min_cycle;Max_cycle;Signal;HPM_P1;HPM_P2
2022/01/25 00:08:38;;;;;;;46.33;21.35;;;5.20;99.90;;;;;;4992604;28;20034;-78
2022/01/25 00:29:55;;;;;;;51.40;24.55;;;5.10;99.90;;;;;;5015767;28;20033;-77
2022/01/25 00:32:21;;;;;;;49.40;24.00;;;5.10;99.90;;;;;;5015710;28;20418;-78
2022/01/25 00:34:47;;;;;;;45.95;23.15;;;5.10;99.90;;;;;;5015492;28;20041;-79
2022/01/25 00:37:13;;;;;;;47.88;23.38;;;5.10;99.90;;;;;;5015596;28;20424;-78
2022/01/25 00:39:40;;;;;;;46.42;22.38;;;5.00;99.90;;;;;;5015614;28;20129;-78
2022/01/25 00:42:09;;;;;;;50.72;26.20;;;5.00;99.90;;;;;;5015606;28;20022;-77
2022/01/25 00:44:38;;;;;;;48.33;25.15;;;5.00;99.90;;;;;;5015448;28;20065;-78
2022/01/25 00:47:06;;;;;;;42.85;23.60;;;5.10;99.90;;;;;;5019355;28;20119;-78
2022/01/25 00:49:39;;;;;;;48.17;22.33;;;5.00;99.90;;;;;;5017207;28;20036;-77
2022/01/25 00:52:20;;;;;;;;;;;5.10;99.90;;;;;;5035374;28;20116;-78
2022/01/25 00:54:47;;;;;;;52.95;25.95;;;5.00;99.90;;;;;;5034877;28;19909;-77
2022/01/25 00:57:14;;;;;;;50.47;26.27;;;5.00;99.90;;;;;;5034996;28;20463;-77
2022/01/25 00:59:40;;;;;;;49.55;27.02;;;5.00;99.90;;;;;;5034949;28;20021;-76
2022/01/25 01:02:13;;;;;;;47.97;26.13;;;5.00;99.90;;;;;;5034741;28;20036;-77
2022/01/25 01:04:41;;;;;;;53.00;26.17;;;5.10;99.90;;;;;;5034915;28;20064;-77
2022/01/25 01:07:11;;;;;;;53.25;26.83;;;5.10;99.90;;;;;;5034917;28;20025;-77
2022/01/25 01:09:39;;;;;;;46.88;24.00;;;5.00;99.90;;;;;;5034806;28;20049;-78
2022/01/25 01:12:14;;;;;;;49.97;24.10;;;5.10;99.90;;;;;;5034777;28;20438;-77
2022/01/25 01:43:56;;;;;;;54.78;27.58;;;5.10;99.90;;;;;;5034234;28;20033;-78
2022/01/25 01:48:52;;;;;;;55.08;28.67;;;5.10;99.90;;;;;;5033852;28;20099;-77
2022/01/25 01:53:54;;;;;;;59.58;26.52;;;5.10;99.90;;;;;;5034062;28;20037;-78
2022/01/25 01:56:20;;;;;;;50.90;24.40;;;5.10;99.90;;;;;;5034020;28;20025;-78
2022/01/25 01:58:45;;;;;;;52.00;24.60;;;5.10;99.90;;;;;;5033981;28;20029;-77
2022/01/25 02:01:16;;;;;;;48.17;23.48;;;5.10;99.90;;;;;;5033196;28;20467;-77
2022/01/25 02:03:42;;;;;;;57.78;25.63;;;5.10;99.90;;;;;;5033964;28;20055;-77
2022/01/25 02:06:08;;;;;;;48.90;25.58;;;5.10;99.90;;;;;;5032425;28;20021;-77
2022/01/25 02:08:34;;;;;;;48.08;24.30;;;5.10;99.90;;;;;;5033581;28;20044;-78
2022/01/25 02:11:04;;;;;;;49.13;24.52;;;5.10;99.90;;;;;;5015757;28;20383;-78
2022/01/25 02:13:30;;;;;;;54.28;26.13;;;5.10;99.90;;;;;;5015716;28;20117;-78
2022/01/25 02:15:58;;;;;;;55.90;25.33;;;5.10;99.90;;;;;;5033469;28;20083;-78
2022/01/25 02:23:39;;;;;;;49.60;24.50;;;5.10;99.90;;;;;;5033608;28;20044;-77
2022/01/25 02:26:07;;;;;;;48.28;24.77;;;5.10;99.90;;;;;;5015552;28;20083;-77
2022/01/25 02:28:35;;;;;;;54.47;25.77;;;5.10;99.90;;;;;;5033139;28;20073;-78
2022/01/25 02:31:04;;;;;;;59.05;25.17;;;5.10;99.90;;;;;;5033176;28;20025;-77
2022/01/25 02:33:30;;;;;;;54.40;25.63;;;5.10;99.90;;;;;;5015231;28;20036;-77
2022/01/25 02:35:57;;;;;;;51.30;25.40;;;5.10;99.90;;;;;;5033204;28;20030;-78
2022/01/25 02:38:26;;;;;;;49.08;24.98;;;5.10;99.90;;;;;;5033112;28;20022;-77
2022/01/25 02:40:52;;;;;;;49.83;25.52;;;5.10;99.90;;;;;;5032878;28;20448;-78
2022/01/25 02:43:20;;;;;;;48.50;24.90;;;5.10;99.90;;;;;;5032911;28;20021;-78
2022/01/25 02:46:06;;;;;;;54.03;26.98;;;5.10;99.90;;;;;;5014663;28;20017;-77
2022/01/25 02:49:06;;;;;;;51.10;25.20;;;5.10;99.90;;;;;;5016285;28;20050;-77
2022/01/25 02:51:40;;;;;;;54.85;26.42;;;5.10;99.90;;;;;;5009579;28;20018;-77
2022/01/25 02:54:08;;;;;;;52.42;27.95;;;5.10;99.90;;;;;;4995472;28;20462;-77
2022/01/25 02:56:36;;;;;;;52.70;25.27;;;5.10;99.90;;;;;;4995435;28;20415;-78
2022/01/25 02:59:03;;;;;;;51.88;27.05;;;5.20;99.90;;;;;;4995396;28;20029;-78
2022/01/25 03:01:29;;;;;;;50.13;25.52;;;5.20;99.90;;;;;;5012876;28;20026;-78
2022/01/25 03:03:55;;;;;;;55.90;24.33;;;5.20;99.90;;;;;;5012537;28;20043;-78
2022/01/25 03:06:23;;;;;;;50.47;24.33;;;5.20;99.90;;;;;;5012800;28;20032;-77
2022/01/25 03:08:49;;;;;;;55.60;26.30;;;5.10;99.90;;;;;;5012843;28;20022;-78
2022/01/25 03:11:18;;;;;;;49.25;24.63;;;5.20;99.90;;;;;;5012477;28;20030;-77
2022/01/25 03:13:52;;;;;;;51.28;23.42;;;5.20;99.90;;;;;;5011255;28;20033;-78
2022/01/25 03:19:28;;;;;;;53.55;24.48;;;5.20;99.90;;;;;;5010845;28;20030;-78
2022/01/25 03:21:51;;;;;;;52.72;27.10;;;5.10;99.90;;;;;;5010324;28;20022;-79
2022/01/25 03:24:18;;;;;;;50.35;25.05;;;5.20;99.90;;;;;;5010691;28;20091;-78
2022/01/25 03:26:44;;;;;;;52.80;24.52;;;5.20;99.90;;;;;;5010582;28;20022;-78
2022/01/25 03:29:09;;;;;;;48.95;24.00;;;5.20;99.90;;;;;;5010388;28;20022;-78
2022/01/25 03:31:35;;;;;;;44.28;23.30;;;5.20;99.90;;;;;;5011873;28;20026;-77
2022/01/25 03:34:01;;;;;;;57.85;25.38;;;5.20;99.90;;;;;;5012352;28;20058;-78
2022/01/25 03:36:27;;;;;;;49.88;23.75;;;5.20;99.90;;;;;;5012386;28;20080;-78
2022/01/25 03:38:53;;;;;;;52.92;25.60;;;5.20;99.90;;;;;;5012132;28;20026;-78
2022/01/25 03:41:19;;;;;;;51.70;23.52;;;5.10;99.90;;;;;;5012190;28;20402;-78
2022/01/25 03:43:53;;;;;;;49.38;24.90;;;5.10;99.90;;;;;;4994614;28;20030;-77
2022/01/25 03:46:36;;;;;;;50.20;23.90;;;5.10;99.90;;;;;;5012269;28;20049;-78
2022/01/25 03:51:47;;;;;;;47.30;23.02;;;5.10;99.90;;;;;;5012308;28;20044;-78
2022/01/25 03:54:12;;;;;;;48.58;24.42;;;5.10;99.90;;;;;;5011848;28;20022;-78
2022/01/25 03:56:39;;;;;;;48.50;24.17;;;5.10;99.90;;;;;;5011943;28;20029;-78
2022/01/25 03:59:06;;;;;;;46.83;23.85;;;5.10;99.90;;;;;;5011661;28;20010;-78
2022/01/25 04:01:33;;;;;;;47.33;23.38;;;5.10;99.90;;;;;;5012038;28;20109;-77
2022/01/25 04:04:06;;;;;;;47.33;24.00;;;5.20;99.90;;;;;;4993766;28;20026;-78
2022/01/25 04:06:33;;;;;;;43.97;22.65;;;5.20;99.90;;;;;;4994188;28;20068;-78
2022/01/25 04:09:02;;;;;;;50.78;23.95;;;5.20;99.90;;;;;;5011838;28;20053;-78
2022/01/25 04:11:28;;;;;;;48.10;24.48;;;5.20;99.90;;;;;;5011798;28;20088;-78
2022/01/25 04:13:56;;;;;;;50.60;25.05;;;5.20;99.90;;;;;;4994157;28;20443;-78
2022/01/25 04:16:31;;;;;;;62.40;28.90;;;5.20;99.90;;;;;;4994134;28;20080;-78
2022/01/25 04:24:41;;;;;;;52.65;28.52;;;5.10;99.90;;;;;;5011790;28;20026;-78
2022/01/25 04:26:55;;;;;;;70.93;33.55;;;5.10;99.90;;;;;;5012021;28;20076;-78
2022/01/25 04:29:21;;;;;;;62.58;29.77;;;5.10;99.90;;;;;;5011658;28;20022;-78
2022/01/25 04:31:47;;;;;;;74.10;35.67;;;5.00;99.90;;;;;;5011819;28;20080;-78
2022/01/25 04:48:52;;;;;;;83.03;37.83;;;5.00;99.90;;;;;;5011689;28;20034;-78
2022/01/25 04:58:27;;;;;;;73.57;35.05;;;5.10;99.90;;;;;;5011589;28;20120;-78
2022/01/25 05:00:53;;;;;;;88.65;40.00;;;5.00;99.90;;;;;;5011364;28;20049;-78
2022/01/25 05:03:25;;;;;;;84.40;38.08;;;5.00;99.90;;;;;;5011376;28;20026;-78
2022/01/25 05:06:08;;;;;;;89.55;43.63;;;5.00;99.90;;;;;;5011412;28;20014;-78
2022/01/25 05:08:42;;;;;;;98.05;47.45;;;5.00;99.90;;;;;;5012038;28;20056;-78
2022/01/25 05:13:53;;;;;;;97.13;42.83;;;5.00;99.90;;;;;;5015059;28;20384;-79
2022/01/25 05:24:43;;;;;;;96.38;45.33;;;4.90;99.90;;;;;;5015121;28;20072;-78
2022/01/25 05:27:11;;;;;;;98.88;45.90;;;4.90;99.90;;;;;;5014605;28;20057;-78
2022/01/25 05:29:37;;;;;;;95.72;46.17;;;4.90;99.90;;;;;;4996947;28;20057;-78
2022/01/25 05:32:04;;;;;;;95.70;43.75;;;4.90;99.90;;;;;;5014425;28;20475;-78
2022/01/25 05:34:29;;;;;;;91.70;41.95;;;4.90;99.90;;;;;;5014466;28;20034;-78
2022/01/25 05:36:55;;;;;;;94.00;43.47;;;4.90;99.90;;;;;;5014368;28;20374;-79
2022/01/25 05:39:27;;;;;;;93.65;45.60;;;4.90;99.90;;;;;;4996453;28;20065;-78
2022/01/25 05:41:58;;;;;;;105.15;49.47;;;4.90;99.90;;;;;;5002795;28;20025;-78
2022/01/25 05:44:55;;;;;;;101.38;48.00;;;4.90;99.90;;;;;;4986135;28;20107;-78
2022/01/25 05:47:14;;;;;;;98.90;45.78;;;4.80;99.90;;;;;;5001472;28;20038;-78
2022/01/25 05:49:43;;;;;;;99.10;45.58;;;4.90;99.90;;;;;;5004057;28;20026;-78
2022/01/25 05:52:10;;;;;;;95.65;45.03;;;4.90;99.90;;;;;;5006569;28;20029;-78
2022/01/25 05:54:37;;;;;;;103.38;46.58;;;4.90;99.90;;;;;;5014084;28;20022;-78
2022/01/25 05:57:03;;;;;;;107.00;47.78;;;4.90;99.90;;;;;;4992709;28;20356;-78
2022/01/25 05:59:29;;;;;;;105.22;47.13;;;4.90;99.90;;;;;;4994528;28;20030;-78
2022/01/25 06:01:55;;;;;;;96.68;46.53;;;4.90;99.90;;;;;;4994371;28;20030;-78
2022/01/25 06:04:22;;;;;;;107.07;47.60;;;4.90;99.90;;;;;;4976895;28;20026;-78
2022/01/25 06:06:48;;;;;;;94.45;46.05;;;4.90;99.90;;;;;;4994363;28;20033;-78
2022/01/25 06:09:14;;;;;;;100.00;46.40;;;4.90;99.90;;;;;;4994356;28;20038;-78
2022/01/25 06:11:39;;;;;;;100.22;45.78;;;4.90;99.90;;;;;;4976614;28;20030;-78
2022/01/25 06:14:06;;;;;;;103.18;49.60;;;4.90;99.90;;;;;;4994244;28;20026;-78
2022/01/25 06:16:32;;;;;;;99.93;44.00;;;4.90;99.90;;;;;;4993993;28;20026;-78
2022/01/25 06:18:58;;;;;;;96.97;45.53;;;4.90;99.90;;;;;;4992375;28;20424;-78
2022/01/25 06:21:25;;;;;;;94.43;44.83;;;4.90;99.90;;;;;;4991914;28;20105;-78
2022/01/25 06:23:51;;;;;;;92.40;44.40;;;4.90;99.90;;;;;;4976390;28;20101;-78
2022/01/25 06:26:17;;;;;;;100.13;45.75;;;4.90;99.90;;;;;;4993635;28;20464;-79
2022/01/25 06:28:46;;;;;;;96.95;46.03;;;4.90;99.90;;;;;;4976046;28;20494;-78
2022/01/25 06:31:14;;;;;;;98.82;48.50;;;4.90;99.90;;;;;;4993598;28;20030;-78
2022/01/25 06:33:43;;;;;;;94.55;45.70;;;4.90;99.90;;;;;;4975142;28;20026;-78
2022/01/25 06:36:10;;;;;;;96.22;46.35;;;4.90;99.90;;;;;;4991907;28;20022;-79
2022/01/25 06:38:36;;;;;;;113.05;47.42;;;4.90;99.90;;;;;;4991912;28;20018;-78
2022/01/25 06:41:02;;;;;;;107.18;49.65;;;4.90;99.90;;;;;;4991856;28;20014;-78
2022/01/25 06:43:28;;;;;;;112.40;50.53;;;4.90;99.90;;;;;;4974365;28;20404;-79
2022/01/25 06:46:01;;;;;;;107.88;49.47;;;4.90;99.90;;;;;;4992157;28;20023;-79
2022/01/25 06:48:27;;;;;;;107.63;47.63;;;4.90;99.90;;;;;;5005401;28;20527;-78
2022/01/25 06:50:53;;;;;;;113.22;51.88;;;4.90;99.90;;;;;;5012973;28;20018;-79
2022/01/25 06:53:18;;;;;;;111.22;54.92;;;4.90;99.90;;;;;;5012987;28;20022;-78
2022/01/25 06:55:44;;;;;;;102.15;48.55;;;4.90;99.90;;;;;;5012944;28;20026;-79
2022/01/25 06:58:10;;;;;;;105.32;50.70;;;4.90;99.90;;;;;;5012951;28;20032;-78
2022/01/25 07:00:36;;;;;;;99.63;48.95;;;4.90;99.90;;;;;;5013111;28;20022;-79
2022/01/25 07:03:03;;;;;;;111.68;53.78;;;4.90;99.90;;;;;;5012993;28;20026;-79
2022/01/25 07:05:29;;;;;;;105.75;51.00;;;4.90;99.90;;;;;;5012934;28;20026;-78
2022/01/25 07:07:55;;;;;;;113.75;52.05;;;4.90;99.90;;;;;;4995172;28;20057;-78
2022/01/25 07:10:21;;;;;;;107.88;49.30;;;4.90;99.90;;;;;;5012775;28;20444;-78
2022/01/25 07:12:47;;;;;;;100.75;47.88;;;4.90;99.90;;;;;;5012733;28;20026;-78
2022/01/25 07:15:13;;;;;;;107.18;49.08;;;4.90;99.90;;;;;;5012491;28;20030;-79
2022/01/25 07:17:39;;;;;;;88.97;46.33;;;4.90;99.90;;;;;;5012705;28;20476;-78
2022/01/25 07:20:07;;;;;;;98.00;45.50;;;4.80;99.90;;;;;;4994800;28;20010;-78
2022/01/25 07:22:34;;;;;;;106.15;47.22;;;4.80;99.90;;;;;;5012438;28;20022;-78
2022/01/25 07:25:00;;;;;;;112.45;47.95;;;4.80;99.90;;;;;;5012567;28;20057;-78
2022/01/25 07:27:26;;;;;;;96.70;46.90;;;4.80;99.90;;;;;;5012448;28;20060;-78
2022/01/25 07:29:52;;;;;;;108.47;50.25;;;4.80;99.90;;;;;;4994653;28;20361;-78
2022/01/25 07:32:18;;;;;;;109.32;50.33;;;4.90;99.90;;;;;;4994661;28;20116;-79
2022/01/25 07:34:44;;;;;;;111.82;53.90;;;4.90;99.90;;;;;;5012432;28;20054;-79
2022/01/25 07:37:10;;;;;;;110.32;50.03;;;4.90;99.90;;;;;;5012217;28;20022;-79
2022/01/25 07:39:36;;;;;;;96.43;46.38;;;4.90;99.90;;;;;;5012321;28;20484;-79
2022/01/25 07:42:01;;;;;;;107.75;47.35;;;4.90;99.90;;;;;;5012426;28;20068;-78
2022/01/25 07:44:31;;;;;;;97.00;46.67;;;4.90;99.90;;;;;;4994531;28;20026;-79
2022/01/25 07:46:58;;;;;;;111.00;48.03;;;4.90;99.90;;;;;;5013151;28;20026;-78
2022/01/25 07:49:30;;;;;;;115.93;54.55;;;4.90;99.90;;;;;;5031888;28;20069;-79
2022/01/25 07:51:57;;;;;;;114.38;52.13;;;4.90;99.90;;;;;;5031893;28;20079;-78
2022/01/25 07:54:23;;;;;;;121.20;58.97;;;4.90;99.90;;;;;;5031904;28;20048;-78
2022/01/25 07:56:49;;;;;;;134.98;59.75;;;4.90;99.90;;;;;;5031664;28;20391;-78
2022/01/25 07:59:16;;;;;;;137.13;63.65;;;4.90;99.90;;;;;;5031743;28;20026;-78
2022/01/25 08:01:42;;;;;;;140.07;63.65;;;5.00;99.90;;;;;;5031457;28;20022;-79
2022/01/25 08:04:09;;;;;;;135.93;66.10;;;5.00;99.90;;;;;;5031527;28;20510;-78
2022/01/25 08:06:37;;;;;;;133.95;61.97;;;5.00;99.90;;;;;;5031534;28;20099;-78
2022/01/25 08:09:07;;;;;;;134.40;63.85;;;5.00;99.90;;;;;;5031788;28;20375;-78
2022/01/25 08:11:33;;;;;;;133.13;63.53;;;5.10;99.90;;;;;;5031794;28;20036;-79
2022/01/25 08:14:11;;;;;;;129.63;57.25;;;5.10;99.90;;;;;;5031497;28;20032;-78
2022/01/25 08:16:41;;;;;;;121.32;55.42;;;5.10;99.90;;;;;;5031715;28;20052;-78
2022/01/25 08:19:07;;;;;;;139.77;57.45;;;5.10;99.90;;;;;;5031458;28;20022;-78
2022/01/25 08:21:33;;;;;;;136.75;57.72;;;5.10;99.90;;;;;;5013905;28;20026;-78
2022/01/25 08:23:59;;;;;;;133.25;56.80;;;5.10;99.90;;;;;;5013634;28;20060;-78
2022/01/25 08:26:25;;;;;;;133.45;61.00;;;5.10;99.90;;;;;;5031076;28;20060;-78
2022/01/25 08:28:51;;;;;;;130.20;58.22;;;5.20;99.90;;;;;;5013812;28;20103;-78
2022/01/25 08:31:16;;;;;;;126.63;55.78;;;5.20;99.90;;;;;;5031274;28;20029;-78
2022/01/25 08:33:42;;;;;;;122.45;51.80;;;5.20;99.90;;;;;;5013639;28;20112;-78
2022/01/25 08:36:08;;;;;;;130.75;58.83;;;5.20;99.90;;;;;;5013389;28;20026;-78
2022/01/25 08:38:34;;;;;;;131.13;56.92;;;5.20;99.90;;;;;;5030658;28;20048;-79
2022/01/25 08:40:59;;;;;;;125.78;56.40;;;5.20;99.90;;;;;;5029917;28;20112;-76
2022/01/25 08:43:25;;;;;;;132.45;57.35;;;5.20;99.90;;;;;;5029025;28;20107;-76
2022/01/25 08:45:51;;;;;;;136.98;61.40;;;5.20;99.90;;;;;;5032330;28;20048;-76
2022/01/25 08:48:17;;;;;;;116.22;54.22;;;5.30;99.90;;;;;;5014347;28;20071;-76
2022/01/25 08:50:43;;;;;;;116.50;53.83;;;5.20;99.90;;;;;;5013662;28;20046;-77
2022/01/25 08:53:11;;;;;;;124.97;54.80;;;5.20;99.90;;;;;;5015132;28;20131;-76
2022/01/25 08:55:37;;;;;;;120.75;53.75;;;5.20;99.90;;;;;;5014086;28;20112;-77
2022/01/25 08:58:03;;;;;;;127.63;54.40;;;5.20;99.90;;;;;;5031849;28;20105;-76
2022/01/25 09:00:29;;;;;;;124.88;55.70;;;5.20;99.90;;;;;;5032543;28;20029;-77
2022/01/25 09:02:55;;;;;;;121.45;54.78;;;5.20;99.90;;;;;;5031435;28;20382;-76
2022/01/25 09:05:21;;;;;;;130.20;59.70;;;5.20;99.90;;;;;;5015206;28;20499;-77
2022/01/25 09:07:47;;;;;;;129.82;58.53;;;5.30;99.90;;;;;;5033018;28;20047;-76
2022/01/25 09:10:13;;;;;;;120.65;55.70;;;5.30;99.90;;;;;;5033097;28;20483;-76
2022/01/25 09:12:39;;;;;;;136.02;56.95;;;5.30;99.90;;;;;;5015964;28;20084;-76
2022/01/25 09:15:05;;;;;;;121.60;54.78;;;5.30;99.90;;;;;;5026873;28;20026;-76
2022/01/25 09:17:31;;;;;;;115.15;53.35;;;5.30;99.90;;;;;;5018419;28;20141;-78
2022/01/25 09:19:56;;;;;;;126.38;56.00;;;5.30;99.90;;;;;;5018748;28;20061;-76
2022/01/25 09:22:22;;;;;;;126.13;57.13;;;5.30;99.90;;;;;;5013517;28;20484;-76
2022/01/25 09:24:49;;;;;;;124.80;60.25;;;5.30;99.90;;;;;;4996342;28;20018;-77
2022/01/25 09:27:15;;;;;;;125.22;60.35;;;5.30;99.90;;;;;;5014026;28;20022;-77
2022/01/25 09:29:40;;;;;;;125.25;55.35;;;5.30;99.90;;;;;;5013748;28;20029;-76
2022/01/25 09:32:10;;;;;;;121.57;55.10;;;5.30;99.90;;;;;;4996700;28;20037;-76
2022/01/25 09:34:35;;;;;;;116.00;54.95;;;5.30;99.90;;;;;;4996434;28;20582;-76
2022/01/25 09:37:02;;;;;;;122.97;54.97;;;5.30;99.90;;;;;;5013742;28;20032;-76
2022/01/25 09:39:28;;;;;;;129.65;54.75;;;5.30;99.90;;;;;;4996568;28;20026;-77
2022/01/25 09:41:54;;;;;;;123.32;52.85;;;5.30;99.90;;;;;;5013775;28;20036;-77
2022/01/25 09:44:20;;;;;;;123.22;55.47;;;5.30;99.90;;;;;;5013892;28;20029;-76
2022/01/25 09:46:46;;;;;;;130.10;56.15;;;5.30;99.90;;;;;;5013898;28;20026;-76
2022/01/25 09:49:12;;;;;;;122.30;55.60;;;5.30;99.90;;;;;;4992758;28;20051;-76
2022/01/25 09:51:41;;;;;;;117.88;55.25;;;5.30;99.90;;;;;;4994385;28;20616;-76
2022/01/25 09:54:07;;;;;;;121.90;54.72;;;5.40;99.90;;;;;;4994230;28;20046;-76
2022/01/25 09:56:33;;;;;;;125.55;56.90;;;5.40;99.90;;;;;;4991443;28;20041;-76
2022/01/25 09:59:00;;;;;;;129.82;57.65;;;5.40;99.90;;;;;;4992938;28;20018;-77
2022/01/25 10:01:29;;;;;;;122.60;56.22;;;5.50;99.90;;;;;;4992392;28;20048;-77
2022/01/25 10:03:56;;;;;;;122.50;56.63;;;5.50;99.90;;;;;;4995176;28;20065;-79
2022/01/25 10:06:22;;;;;;;132.40;56.65;;;5.60;99.90;;;;;;5013210;28;20063;-78
2022/01/25 10:08:52;;;;;;;127.30;57.03;;;5.70;99.90;;;;;;5003533;28;20045;-78
2022/01/25 10:11:23;;;;;;;120.25;55.95;;;5.70;99.90;;;;;;4999751;28;20370;-77
2022/01/25 10:13:54;;;;;;;121.95;54.15;;;5.80;99.90;;;;;;4992233;28;20455;-77
2022/01/25 10:16:43;;;;;;;118.65;55.38;;;5.80;99.90;;;;;;4994152;28;20512;-76
2022/01/25 10:19:12;;;;;;;118.50;53.47;;;5.90;99.90;;;;;;4993718;28;20015;-76
2022/01/25 10:21:50;;;;;;;112.82;54.55;;;6.00;99.90;;;;;;4993581;28;20481;-77
2022/01/25 10:24:23;;;;;;;115.75;51.53;;;6.00;99.90;;;;;;4993144;28;20023;-76
2022/01/25 10:26:55;;;;;;;110.72;51.13;;;6.10;99.90;;;;;;4992437;28;20030;-77
2022/01/25 10:29:24;;;;;;;105.63;49.90;;;6.10;99.90;;;;;;4992722;28;20030;-77
2022/01/25 10:31:58;;;;;;;101.80;47.30;;;6.20;99.90;;;;;;4992280;28;20052;-77
2022/01/25 10:34:33;;;;;;;82.15;37.17;;;6.30;99.90;;;;;;4992734;28;20389;-77
2022/01/25 10:37:05;;;;;;;64.22;31.23;;;6.30;99.90;;;;;;4990917;28;20037;-78
2022/01/25 10:39:34;;;;;;;71.75;36.20;;;6.30;99.90;;;;;;4993452;28;20373;-77
2022/01/25 10:42:27;;;;;;;74.63;33.38;;;6.40;99.90;;;;;;4991772;28;20030;-76
2022/01/25 10:44:57;;;;;;;76.10;34.80;;;6.40;99.90;;;;;;4993443;28;20027;-77
2022/01/25 10:47:40;;;;;;;68.82;33.05;;;6.50;99.90;;;;;;5006478;28;20372;-77
2022/01/25 10:50:31;;;;;;;72.80;33.25;;;6.50;99.90;;;;;;5032230;28;20029;-77
2022/01/25 10:53:12;;;;;;;70.00;32.63;;;6.60;99.90;;;;;;5013822;28;20025;-77
2022/01/25 10:55:38;;;;;;;78.93;35.67;;;6.60;99.90;;;;;;5031881;28;20573;-76
2022/01/25 10:58:04;;;;;;;71.55;33.55;;;6.60;99.90;;;;;;5031871;28;20387;-77
2022/01/25 11:00:37;;;;;;;73.20;33.67;;;6.70;99.90;;;;;;5030920;28;20029;-78
2022/01/25 11:03:04;;;;;;;79.15;35.60;;;6.70;99.90;;;;;;5012096;28;20018;-76
2022/01/25 11:05:33;;;;;;;76.70;37.63;;;6.80;99.90;;;;;;5031282;28;20029;-76
2022/01/25 11:08:12;;;;;;;78.72;36.80;;;6.70;99.90;;;;;;5032074;28;20022;-77
2022/01/25 11:10:46;;;;;;;66.93;32.03;;;6.70;99.90;;;;;;5032329;28;20506;-76
2022/01/25 11:13:32;;;;;;;75.63;34.72;;;6.80;99.90;;;;;;5032330;28;20025;-76
2022/01/25 11:16:01;;;;;;;80.55;37.72;;;6.80;99.90;;;;;;5029062;28;20098;-77
2022/01/25 11:18:26;;;;;;;79.47;36.45;;;6.80;99.90;;;;;;5014859;28;20032;-76
2022/01/25 11:20:54;;;;;;;75.60;35.88;;;6.90;99.90;;;;;;5030500;28;20104;-78
2022/01/25 11:23:20;;;;;;;80.82;37.58;;;6.90;99.90;;;;;;5031193;28;20033;-77
2022/01/25 11:25:48;;;;;;;74.38;35.58;;;7.00;99.90;;;;;;5012480;28;20029;-78
2022/01/25 11:28:15;;;;;;;75.93;37.05;;;7.00;99.90;;;;;;5025042;28;20020;-79
2022/01/25 11:30:42;;;;;;;79.15;38.22;;;7.00;99.90;;;;;;5010354;28;20638;-78
2022/01/25 11:33:10;;;;;;;79.30;37.45;;;7.10;99.90;;;;;;5011191;28;20382;-78
2022/01/25 11:35:37;;;;;;;86.90;39.05;;;7.00;99.90;;;;;;5010573;28;20419;-77
2022/01/25 11:38:05;;;;;;;82.15;38.47;;;7.00;99.90;;;;;;5022234;28;20014;-78
2022/01/25 11:40:47;;;;;;;78.95;36.95;;;7.00;99.90;;;;;;5008676;28;20041;-77
2022/01/25 11:43:17;;;;;;;82.80;38.03;;;7.00;99.90;;;;;;5011566;28;20034;-77
2022/01/25 11:45:51;;;;;;;77.93;37.03;;;7.10;99.90;;;;;;5010695;28;20030;-78
2022/01/25 11:48:24;;;;;;;76.90;35.35;;;7.10;99.90;;;;;;5006490;28;20042;-77
2022/01/25 11:50:50;;;;;;;81.68;36.13;;;7.10;99.90;;;;;;5007003;28;20025;-77
2022/01/25 11:53:18;;;;;;;85.13;37.28;;;7.20;99.90;;;;;;5010243;28;20094;-77
2022/01/25 11:55:48;;;;;;;82.35;37.28;;;7.20;99.90;;;;;;5001430;28;20022;-77
2022/01/25 11:58:32;;;;;;;85.20;38.28;;;7.30;99.90;;;;;;4982705;28;20022;-79
2022/01/25 12:01:01;;;;;;;93.35;41.72;;;7.40;99.90;;;;;;4996822;28;20018;-77
2022/01/25 12:03:31;;;;;;;91.47;40.67;;;7.40;99.90;;;;;;5004977;28;20025;-77
2022/01/25 12:06:05;;;;;;;91.07;41.47;;;7.50;99.90;;;;;;4992771;28;20443;-78
2022/01/25 12:11:29;;;;;;;92.20;42.75;;;7.50;99.90;;;;;;5012816;28;20030;-78
2022/01/25 12:14:23;;;;;;;99.07;43.90;;;7.50;99.90;;;;;;5013079;28;20026;-78
2022/01/25 12:16:58;;;;;;;94.07;44.38;;;7.50;99.90;;;;;;5012925;28;20030;-78
2022/01/25 12:19:51;;;;;;;98.22;42.17;;;7.50;99.90;;;;;;5012089;28;20061;-77
2022/01/25 12:22:32;;;;;;;116.20;50.45;;;7.60;99.90;;;;;;4995558;28;20014;-77
2022/01/25 12:25:08;;;;;;;99.32;48.20;;;7.50;99.90;;;;;;5013334;28;20057;-77
2022/01/25 12:28:06;;;;;;;112.57;49.42;;;7.50;99.90;;;;;;5010633;28;20084;-73
2022/01/25 12:30:41;;;;;;;93.88;44.00;;;7.50;99.90;;;;;;5010340;28;20022;-73
2022/01/25 12:33:28;;;;;;;110.80;47.25;;;7.50;99.90;;;;;;5009410;28;20712;-77
2022/01/25 12:36:05;;;;;;;99.97;43.67;;;7.50;99.90;;;;;;4993343;28;20579;-77
2022/01/25 12:38:45;;;;;;;92.63;42.78;;;7.50;99.90;;;;;;5012912;28;20041;-77
2022/01/25 12:41:16;;;;;;;88.38;40.17;;;7.50;99.90;;;;;;5012113;28;20464;-73
2022/01/25 12:43:53;;;;;;;85.50;40.85;;;7.50;99.90;;;;;;5006241;28;20033;-73
2022/01/25 12:46:25;;;;;;;99.82;43.63;;;7.50;99.90;;;;;;4989147;28;20030;-73
2022/01/25 12:48:56;;;;;;;90.43;40.15;;;7.60;99.90;;;;;;4991741;28;20060;-73
2022/01/25 12:51:34;;;;;;;91.22;41.58;;;7.60;99.90;;;;;;5012651;28;20026;-73
2022/01/25 12:54:03;;;;;;;91.20;39.28;;;7.60;99.90;;;;;;5012432;28;20053;-73
2022/01/25 12:56:42;;;;;;;90.20;37.47;;;7.70;99.90;;;;;;5011460;28;20412;-73
2022/01/25 12:59:14;;;;;;;89.63;40.03;;;7.70;99.90;;;;;;5030597;28;20033;-73
2022/01/25 13:01:42;;;;;;;97.68;41.22;;;7.70;99.90;;;;;;5031349;28;20029;-73
2022/01/25 13:04:10;;;;;;;98.13;41.83;;;7.70;99.90;;;;;;5030936;28;20014;-73
2022/01/25 13:06:43;;;;;;;90.60;39.83;;;7.70;99.90;;;;;;5031227;28;20156;-73
2022/01/25 13:09:40;;;;;;;103.43;43.55;;;7.70;99.90;;;;;;5031051;28;20113;-73
2022/01/25 13:17:15;;;;;;;110.93;45.50;;;7.60;99.90;;;;;;5031118;28;20025;-73
2022/01/25 13:19:48;;;;;;;109.07;45.33;;;7.60;99.90;;;;;;5021552;28;20018;-72
2022/01/25 13:22:27;;;;;;;102.75;45.25;;;7.60;99.90;;;;;;5017877;28;20464;-73
2022/01/25 13:25:11;;;;;;;101.80;44.22;;;7.70;99.90;;;;;;5013999;28;20030;-73
2022/01/25 13:27:53;;;;;;;96.47;41.63;;;7.70;99.90;;;;;;5012130;28;20505;-73
2022/01/25 13:33:19;;;;;;;107.30;45.47;;;7.60;99.90;;;;;;5016062;28;20049;-73
2022/01/25 13:35:53;;;;;;;104.65;44.55;;;7.60;99.90;;;;;;4998550;28;20025;-73
2022/01/25 13:38:25;;;;;;;112.57;48.05;;;7.60;99.90;;;;;;5012901;28;20028;-73
2022/01/25 13:46:30;;;;;;;135.45;52.40;;;7.50;99.90;;;;;;5021655;28;20534;-73
2022/01/25 13:49:12;;;;;;;121.88;49.10;;;7.50;99.90;;;;;;5019078;28;20045;-73
2022/01/25 13:51:42;;;;;;;137.32;55.70;;;7.50;99.90;;;;;;5027515;28;20448;-73
2022/01/25 13:54:12;;;;;;;132.45;49.03;;;7.50;99.90;;;;;;5026870;28;20036;-73
2022/01/25 13:56:38;;;;;;;132.90;50.88;;;7.40;99.90;;;;;;5011738;28;20076;-73
2022/01/25 13:59:06;;;;;;;126.25;50.53;;;7.50;99.90;;;;;;5005223;28;20022;-73
2022/01/25 14:01:35;;;;;;;140.02;52.63;;;7.40;99.90;;;;;;5011987;28;20028;-74
2022/01/25 14:04:03;;;;;;;132.98;54.38;;;7.40;99.90;;;;;;5023924;28;20441;-74
2022/01/25 14:06:39;;;;;;;140.38;52.75;;;7.40;99.90;;;;;;5015741;28;20014;-74
2022/01/25 14:09:19;;;;;;;133.60;54.20;;;7.40;99.90;;;;;;5016794;28;20079;-74
2022/01/25 14:25:01;;;;;;;122.88;49.80;;;7.10;99.90;;;;;;5034248;28;20061;-73
2022/01/25 14:27:39;;;;;;;126.18;50.20;;;7.10;99.90;;;;;;5034132;28;20130;-74
2022/01/25 14:30:05;;;;;;;133.85;52.40;;;7.00;99.90;;;;;;5016281;28;20029;-74
2022/01/25 14:32:33;;;;;;;128.57;53.10;;;7.00;99.90;;;;;;5034196;28;20112;-74
2022/01/25 14:35:10;;;;;;;123.88;50.83;;;7.00;99.90;;;;;;5015677;28;20037;-74
2022/01/25 14:37:49;;;;;;;124.43;51.08;;;7.00;99.90;;;;;;5033404;28;20487;-75
2022/01/25 14:40:17;;;;;;;128.35;53.60;;;6.90;99.90;;;;;;5034244;28;20032;-75
2022/01/25 14:42:46;;;;;;;127.35;52.55;;;6.80;99.90;;;;;;5015333;28;20022;-75
2022/01/25 14:45:19;;;;;;;132.60;51.80;;;6.70;99.90;;;;;;5028229;28;20061;-73
2022/01/25 14:47:50;;;;;;;134.80;52.95;;;6.70;99.90;;;;;;5041418;28;20051;-75
2022/01/25 14:50:33;;;;;;;131.40;53.17;;;6.70;99.90;;;;;;5001360;28;20034;-75
2022/01/25 14:53:03;;;;;;;133.60;55.30;;;6.70;99.90;;;;;;5032271;28;20550;-74
2022/01/25 14:55:30;;;;;;;135.48;55.05;;;6.60;99.90;;;;;;5025721;28;20036;-74
2022/01/25 14:59:22;;;;;;;134.80;52.58;;;6.50;99.90;;;;;;5021937;28;20057;-73
2022/01/25 15:00:54;;;;;;;143.60;53.78;;;6.40;99.90;;;;;;5018176;28;20056;-75
2022/01/25 15:03:24;;;;;;;139.82;53.70;;;6.30;99.90;;;;;;5025687;28;20029;-75
2022/01/25 15:05:52;;;;;;;144.18;54.83;;;6.20;99.90;;;;;;5002719;28;20106;-74